sensor_id;sensor_type;location;lat;lon;timestamp;pressure;altitude;pressure_sealevel;temperature;humidity
77240;BME280;66258;53.170;-2.240;2023-02-15T00:00:11;101253.94;;;14.72;92.66
77240;BME280;66258;53.170;-2.240;2023-02-15T00:02:38;101247.63;;;14.72;92.83
77240;BME280;66258;53.170;-2.240;2023-02-15T00:05:07;101251.72;;;14.68;93.03
77240;BME280;66258;53.170;-2.240;2023-02-15T00:07:34;101249.81;;;14.76;92.65
77240;BME280;66258;53.170;-2.240;2023-02-15T00:10:02;101249.69;;;14.70;92.51
77240;BME280;66258;53.170;-2.240;2023-02-15T00:12:30;101246.94;;;14.70;92.71
77240;BME280;66258;53.170;-2.240;2023-02-15T00:14:56;101246.59;;;14.65;92.65
77240;BME280;66258;53.170;-2.240;2023-02-15T00:17:24;101234.50;;;14.59;92.54
77240;BME280;66258;53.170;-2.240;2023-02-15T00:19:51;101236.91;;;14.46;92.02
77240;BME280;66258;53.170;-2.240;2023-02-15T00:22:18;101227.66;;;14.39;91.75
77240;BME280;66258;53.170;-2.240;2023-02-15T00:24:45;101231.56;;;14.28;91.96
77240;BME280;66258;53.170;-2.240;2023-02-15T00:27:13;101228.16;;;14.26;91.95
77240;BME280;66258;53.170;-2.240;2023-02-15T00:29:40;101225.09;;;14.21;92.13
77240;BME280;66258;53.170;-2.240;2023-02-15T00:32:07;101217.78;;;14.22;91.97
77240;BME280;66258;53.170;-2.240;2023-02-15T00:34:34;101217.44;;;14.25;92.14
77240;BME280;66258;53.170;-2.240;2023-02-15T00:37:01;101215.56;;;14.25;92.40
77240;BME280;66258;53.170;-2.240;2023-02-15T00:39:27;101213.19;;;14.30;92.18
77240;BME280;66258;53.170;-2.240;2023-02-15T00:41:54;101210.78;;;14.19;91.63
77240;BME280;66258;53.170;-2.240;2023-02-15T00:44:22;101204.66;;;14.17;91.34
77240;BME280;66258;53.170;-2.240;2023-02-15T00:46:49;101202.25;;;14.14;91.29
77240;BME280;66258;53.170;-2.240;2023-02-15T00:49:16;101192.91;;;14.08;90.98
77240;BME280;66258;53.170;-2.240;2023-02-15T00:51:43;101200.94;;;14.10;90.91
77240;BME280;66258;53.170;-2.240;2023-02-15T00:54:10;101188.50;;;14.07;90.72
77240;BME280;66258;53.170;-2.240;2023-02-15T00:56:37;101179.81;;;14.04;90.33
77240;BME280;66258;53.170;-2.240;2023-02-15T00:59:04;101171.13;;;14.00;90.24
77240;BME280;66258;53.170;-2.240;2023-02-15T01:01:32;101165.00;;;14.06;89.98
77240;BME280;66258;53.170;-2.240;2023-02-15T01:03:59;101158.03;;;14.12;89.53
77240;BME280;66258;53.170;-2.240;2023-02-15T01:06:25;101143.22;;;14.15;89.55
77240;BME280;66258;53.170;-2.240;2023-02-15T01:08:52;101141.03;;;14.10;89.34
77240;BME280;66258;53.170;-2.240;2023-02-15T01:11:21;101133.53;;;14.04;88.95
77240;BME280;66258;53.170;-2.240;2023-02-15T01:13:50;101131.47;;;14.06;88.91
77240;BME280;66258;53.170;-2.240;2023-02-15T01:16:17;101120.94;;;14.03;88.68
77240;BME280;66258;53.170;-2.240;2023-02-15T01:18:46;101124.66;;;13.94;88.70
77240;BME280;66258;53.170;-2.240;2023-02-15T01:21:15;101105.97;;;13.91;88.33
77240;BME280;66258;53.170;-2.240;2023-02-15T01:23:43;101108.16;;;13.87;89.21
77240;BME280;66258;53.170;-2.240;2023-02-15T01:26:10;101098.09;;;13.80;89.03
77240;BME280;66258;53.170;-2.240;2023-02-15T01:28:37;101102.69;;;13.95;88.58
77240;BME280;66258;53.170;-2.240;2023-02-15T01:31:05;101101.34;;;14.07;87.56
77240;BME280;66258;53.170;-2.240;2023-02-15T01:33:34;101095.41;;;14.04;86.59
77240;BME280;66258;53.170;-2.240;2023-02-15T01:36:03;101091.47;;;13.98;85.87
77240;BME280;66258;53.170;-2.240;2023-02-15T01:38:30;101092.16;;;14.08;85.44
77240;BME280;66258;53.170;-2.240;2023-02-15T01:40:57;101086.06;;;13.90;85.67
77240;BME280;66258;53.170;-2.240;2023-02-15T01:43:39;101081.97;;;14.02;85.15
77240;BME280;66258;53.170;-2.240;2023-02-15T01:46:07;101078.38;;;14.02;84.99
77240;BME280;66258;53.170;-2.240;2023-02-15T01:48:40;101073.44;;;14.05;84.30
77240;BME280;66258;53.170;-2.240;2023-02-15T01:51:11;101064.41;;;14.21;83.09
77240;BME280;66258;53.170;-2.240;2023-02-15T01:53:43;101060.97;;;14.35;81.59
77240;BME280;66258;53.170;-2.240;2023-02-15T01:56:15;101058.63;;;14.40;80.07
77240;BME280;66258;53.170;-2.240;2023-02-15T01:58:43;101063.38;;;14.47;78.92
77240;BME280;66258;53.170;-2.240;2023-02-15T02:01:10;101054.69;;;14.43;77.87
77240;BME280;66258;53.170;-2.240;2023-02-15T02:03:43;101050.44;;;14.49;77.03
77240;BME280;66258;53.170;-2.240;2023-02-15T02:06:15;101051.78;;;14.53;75.89
77240;BME280;66258;53.170;-2.240;2023-02-15T02:08:42;101040.53;;;14.39;75.42
77240;BME280;66258;53.170;-2.240;2023-02-15T02:11:10;101041.94;;;14.43;74.40
77240;BME280;66258;53.170;-2.240;2023-02-15T02:13:38;101043.97;;;14.41;74.20
77240;BME280;66258;53.170;-2.240;2023-02-15T02:16:12;101042.94;;;14.42;73.65
77240;BME280;66258;53.170;-2.240;2023-02-15T02:18:50;101027.75;;;14.40;73.37
77240;BME280;66258;53.170;-2.240;2023-02-15T02:21:47;101028.28;;;14.35;73.03
77240;BME280;66258;53.170;-2.240;2023-02-15T02:27:35;101014.84;;;14.42;72.19
77240;BME280;66258;53.170;-2.240;2023-02-15T02:30:33;101003.78;;;14.52;71.59
77240;BME280;66258;53.170;-2.240;2023-02-15T02:33:24;100992.31;;;14.56;70.92
77240;BME280;66258;53.170;-2.240;2023-02-15T02:36:03;100994.16;;;14.64;70.11
77240;BME280;66258;53.170;-2.240;2023-02-15T02:38:45;100991.06;;;14.75;68.88
77240;BME280;66258;53.170;-2.240;2023-02-15T02:41:18;100991.63;;;14.62;69.44
77240;BME280;66258;53.170;-2.240;2023-02-15T02:43:52;100982.84;;;14.44;70.11
77240;BME280;66258;53.170;-2.240;2023-02-15T02:46:25;100981.25;;;14.58;69.77
77240;BME280;66258;53.170;-2.240;2023-02-15T02:48:56;100976.03;;;14.48;69.97
77240;BME280;66258;53.170;-2.240;2023-02-15T02:51:23;100974.94;;;14.57;70.17
77240;BME280;66258;53.170;-2.240;2023-02-15T02:53:53;100968.53;;;14.42;69.95
77240;BME280;66258;53.170;-2.240;2023-02-15T02:56:28;100967.34;;;14.44;70.41
77240;BME280;66258;53.170;-2.240;2023-02-15T02:58:59;100958.13;;;14.54;70.37
77240;BME280;66258;53.170;-2.240;2023-02-15T03:01:32;100956.09;;;14.48;70.53
77240;BME280;66258;53.170;-2.240;2023-02-15T03:04:07;100962.91;;;14.35;71.57
77240;BME280;66258;53.170;-2.240;2023-02-15T03:06:40;100946.28;;;14.30;71.17
77240;BME280;66258;53.170;-2.240;2023-02-15T03:09:14;100949.97;;;14.37;71.26
77240;BME280;66258;53.170;-2.240;2023-02-15T03:11:44;100942.34;;;14.33;71.05
77240;BME280;66258;53.170;-2.240;2023-02-15T03:14:13;100932.69;;;14.14;71.53
77240;BME280;66258;53.170;-2.240;2023-02-15T03:16:43;100928.66;;;14.02;72.47
77240;BME280;66258;53.170;-2.240;2023-02-15T03:19:17;100927.13;;;13.99;73.00
77240;BME280;66258;53.170;-2.240;2023-02-15T03:21:47;100933.59;;;13.98;73.67
77240;BME280;66258;53.170;-2.240;2023-02-15T03:24:18;100934.44;;;13.99;73.58
77240;BME280;66258;53.170;-2.240;2023-02-15T03:26:49;100929.53;;;13.86;73.85
77240;BME280;66258;53.170;-2.240;2023-02-15T03:29:19;100937.66;;;13.94;74.47
77240;BME280;66258;53.170;-2.240;2023-02-15T03:31:51;100930.69;;;14.00;74.30
77240;BME280;66258;53.170;-2.240;2023-02-15T03:34:22;100930.19;;;14.04;73.47
77240;BME280;66258;53.170;-2.240;2023-02-15T03:36:52;100922.00;;;14.04;73.59
77240;BME280;66258;53.170;-2.240;2023-02-15T03:39:26;100921.00;;;13.97;73.71
77240;BME280;66258;53.170;-2.240;2023-02-15T03:42:04;100914.69;;;13.97;74.02
77240;BME280;66258;53.170;-2.240;2023-02-15T03:44:41;100920.13;;;14.13;74.01
77240;BME280;66258;53.170;-2.240;2023-02-15T03:47:16;100906.19;;;14.08;73.32
77240;BME280;66258;53.170;-2.240;2023-02-15T03:49:48;100907.53;;;14.12;73.40
77240;BME280;66258;53.170;-2.240;2023-02-15T03:52:18;100903.72;;;14.21;73.09
77240;BME280;66258;53.170;-2.240;2023-02-15T03:54:47;100890.69;;;14.08;72.87
77240;BME280;66258;53.170;-2.240;2023-02-15T03:57:20;100868.59;;;13.95;72.95
77240;BME280;66258;53.170;-2.240;2023-02-15T03:59:47;100868.41;;;13.97;73.40
77240;BME280;66258;53.170;-2.240;2023-02-15T04:02:21;100865.75;;;13.81;74.10
77240;BME280;66258;53.170;-2.240;2023-02-15T04:04:52;100857.75;;;13.87;74.30
77240;BME280;66258;53.170;-2.240;2023-02-15T04:07:18;100851.78;;;13.92;73.76
77240;BME280;66258;53.170;-2.240;2023-02-15T04:09:45;100855.19;;;13.86;74.28
77240;BME280;66258;53.170;-2.240;2023-02-15T04:12:12;100857.16;;;14.08;73.10
77240;BME280;66258;53.170;-2.240;2023-02-15T04:14:39;100847.97;;;14.09;72.62
77240;BME280;66258;53.170;-2.240;2023-02-15T04:17:06;100846.94;;;14.10;72.16
77240;BME280;66258;53.170;-2.240;2023-02-15T04:19:33;100846.41;;;14.15;71.95
77240;BME280;66258;53.170;-2.240;2023-02-15T04:22:02;100842.47;;;14.17;71.69
77240;BME280;66258;53.170;-2.240;2023-02-15T04:24:29;100832.00;;;13.98;71.80
77240;BME280;66258;53.170;-2.240;2023-02-15T04:26:56;100835.16;;;14.18;71.42
77240;BME280;66258;53.170;-2.240;2023-02-15T04:29:24;100825.97;;;14.19;71.05
77240;BME280;66258;53.170;-2.240;2023-02-15T04:31:52;100825.88;;;14.04;71.38
77240;BME280;66258;53.170;-2.240;2023-02-15T04:34:19;100818.13;;;14.24;70.73
77240;BME280;66258;53.170;-2.240;2023-02-15T04:36:46;100815.00;;;13.96;70.95
77240;BME280;66258;53.170;-2.240;2023-02-15T04:39:15;100815.88;;;14.27;70.40
77240;BME280;66258;53.170;-2.240;2023-02-15T04:41:43;100814.56;;;13.84;70.08
77240;BME280;66258;53.170;-2.240;2023-02-15T04:44:10;100824.19;;;14.34;70.17
77240;BME280;66258;53.170;-2.240;2023-02-15T04:46:37;100830.78;;;14.48;68.98
77240;BME280;66258;53.170;-2.240;2023-02-15T04:49:04;100833.16;;;14.51;68.17
77240;BME280;66258;53.170;-2.240;2023-02-15T04:51:31;100825.03;;;14.34;68.39
77240;BME280;66258;53.170;-2.240;2023-02-15T04:53:58;100820.88;;;14.16;68.91
77240;BME280;66258;53.170;-2.240;2023-02-15T04:56:26;100817.41;;;14.30;69.11
77240;BME280;66258;53.170;-2.240;2023-02-15T04:58:53;100823.25;;;14.19;69.00
77240;BME280;66258;53.170;-2.240;2023-02-15T05:01:20;100827.75;;;14.34;69.01
77240;BME280;66258;53.170;-2.240;2023-02-15T05:03:47;100826.38;;;14.38;68.76
77240;BME280;66258;53.170;-2.240;2023-02-15T05:06:14;100823.38;;;14.25;68.92
77240;BME280;66258;53.170;-2.240;2023-02-15T05:08:41;100827.31;;;14.23;69.48
77240;BME280;66258;53.170;-2.240;2023-02-15T05:11:07;100830.19;;;14.29;69.24
77240;BME280;66258;53.170;-2.240;2023-02-15T05:13:36;100828.47;;;14.28;68.92
77240;BME280;66258;53.170;-2.240;2023-02-15T05:16:03;100835.81;;;14.28;69.21
77240;BME280;66258;53.170;-2.240;2023-02-15T05:18:30;100820.88;;;14.16;69.43
77240;BME280;66258;53.170;-2.240;2023-02-15T05:20:57;100816.16;;;14.09;70.31
77240;BME280;66258;53.170;-2.240;2023-02-15T05:23:24;100813.09;;;14.04;71.09
77240;BME280;66258;53.170;-2.240;2023-02-15T05:25:51;100806.13;;;14.02;70.80
77240;BME280;66258;53.170;-2.240;2023-02-15T05:28:18;100806.97;;;14.10;70.82
77240;BME280;66258;53.170;-2.240;2023-02-15T05:30:47;100811.97;;;13.91;71.16
77240;BME280;66258;53.170;-2.240;2023-02-15T05:33:14;100809.88;;;14.01;71.24
77240;BME280;66258;53.170;-2.240;2023-02-15T05:35:41;100801.63;;;13.86;71.77
77240;BME280;66258;53.170;-2.240;2023-02-15T05:38:08;100800.34;;;13.66;72.82
77240;BME280;66258;53.170;-2.240;2023-02-15T05:40:35;100794.66;;;13.84;72.70
77240;BME280;66258;53.170;-2.240;2023-02-15T05:43:02;100796.19;;;13.78;73.05
77240;BME280;66258;53.170;-2.240;2023-02-15T05:45:29;100795.81;;;13.89;72.46
77240;BME280;66258;53.170;-2.240;2023-02-15T05:47:58;100800.63;;;13.79;72.69
77240;BME280;66258;53.170;-2.240;2023-02-15T05:50:24;100796.59;;;13.59;73.90
77240;BME280;66258;53.170;-2.240;2023-02-15T05:52:51;100796.09;;;13.63;74.35
77240;BME280;66258;53.170;-2.240;2023-02-15T05:55:18;100799.09;;;13.76;73.75
77240;BME280;66258;53.170;-2.240;2023-02-15T05:57:45;100788.19;;;13.76;73.93
77240;BME280;66258;53.170;-2.240;2023-02-15T06:00:13;100785.66;;;13.75;73.49
77240;BME280;66258;53.170;-2.240;2023-02-15T06:02:41;100784.13;;;13.72;73.58
77240;BME280;66258;53.170;-2.240;2023-02-15T06:05:09;100783.28;;;13.72;74.23
77240;BME280;66258;53.170;-2.240;2023-02-15T06:07:36;100781.63;;;13.63;74.29
77240;BME280;66258;53.170;-2.240;2023-02-15T06:10:03;100796.59;;;13.67;74.60
77240;BME280;66258;53.170;-2.240;2023-02-15T06:12:30;100794.41;;;13.54;75.33
77240;BME280;66258;53.170;-2.240;2023-02-15T06:14:58;100798.47;;;13.66;75.31
77240;BME280;66258;53.170;-2.240;2023-02-15T06:17:24;100799.00;;;13.54;75.60
77240;BME280;66258;53.170;-2.240;2023-02-15T06:19:51;100791.34;;;13.57;75.77
77240;BME280;66258;53.170;-2.240;2023-02-15T06:22:19;100789.13;;;13.53;75.66
77240;BME280;66258;53.170;-2.240;2023-02-15T06:24:46;100783.06;;;13.34;76.47
77240;BME280;66258;53.170;-2.240;2023-02-15T06:27:13;100784.63;;;13.29;77.15
77240;BME280;66258;53.170;-2.240;2023-02-15T06:29:40;100771.16;;;13.35;77.02
77240;BME280;66258;53.170;-2.240;2023-02-15T06:32:07;100768.31;;;13.29;77.46
77240;BME280;66258;53.170;-2.240;2023-02-15T06:34:34;100764.19;;;13.33;77.75
77240;BME280;66258;53.170;-2.240;2023-02-15T06:37:00;100766.78;;;13.18;79.09
77240;BME280;66258;53.170;-2.240;2023-02-15T06:39:29;100767.81;;;13.25;80.24
77240;BME280;66258;53.170;-2.240;2023-02-15T06:41:57;100758.63;;;13.18;80.25
77240;BME280;66258;53.170;-2.240;2023-02-15T06:44:24;100764.56;;;13.30;80.50
77240;BME280;66258;53.170;-2.240;2023-02-15T06:46:51;100759.31;;;13.28;80.05
77240;BME280;66258;53.170;-2.240;2023-02-15T06:49:18;100761.47;;;13.33;79.67
77240;BME280;66258;53.170;-2.240;2023-02-15T06:51:45;100745.84;;;13.35;79.49
77240;BME280;66258;53.170;-2.240;2023-02-15T06:54:12;100744.63;;;13.46;79.01
77240;BME280;66258;53.170;-2.240;2023-02-15T06:56:41;100754.69;;;13.37;78.45
77240;BME280;66258;53.170;-2.240;2023-02-15T06:59:08;100758.91;;;13.39;79.15
77240;BME280;66258;53.170;-2.240;2023-02-15T07:01:35;100783.06;;;13.43;78.84
77240;BME280;66258;53.170;-2.240;2023-02-15T07:04:02;100765.53;;;13.45;78.34
77240;BME280;66258;53.170;-2.240;2023-02-15T07:06:31;100767.75;;;13.33;78.31
77240;BME280;66258;53.170;-2.240;2023-02-15T07:08:58;100760.84;;;13.23;78.91
77240;BME280;66258;53.170;-2.240;2023-02-15T07:11:26;100763.56;;;13.23;79.49
77240;BME280;66258;53.170;-2.240;2023-02-15T07:13:54;100765.25;;;13.24;79.53
77240;BME280;66258;53.170;-2.240;2023-02-15T07:16:21;100765.09;;;13.17;79.73
77240;BME280;66258;53.170;-2.240;2023-02-15T07:18:48;100771.19;;;13.27;80.27
77240;BME280;66258;53.170;-2.240;2023-02-15T07:21:15;100762.31;;;13.33;80.81
77240;BME280;66258;53.170;-2.240;2023-02-15T07:23:42;100756.88;;;13.33;80.82
77240;BME280;66258;53.170;-2.240;2023-02-15T07:26:09;100737.38;;;13.30;80.78
77240;BME280;66258;53.170;-2.240;2023-02-15T07:28:36;100746.06;;;13.25;81.31
77240;BME280;66258;53.170;-2.240;2023-02-15T07:31:05;100743.34;;;13.25;81.88
77240;BME280;66258;53.170;-2.240;2023-02-15T07:33:32;100736.34;;;13.15;82.88
77240;BME280;66258;53.170;-2.240;2023-02-15T07:36:05;100735.81;;;13.35;83.29
77240;BME280;66258;53.170;-2.240;2023-02-15T07:38:33;100741.28;;;13.19;83.03
77240;BME280;66258;53.170;-2.240;2023-02-15T07:41:01;100738.69;;;13.50;83.29
77240;BME280;66258;53.170;-2.240;2023-02-15T07:43:29;100725.25;;;13.49;82.57
77240;BME280;66258;53.170;-2.240;2023-02-15T07:45:58;100725.69;;;13.68;82.04
77240;BME280;66258;53.170;-2.240;2023-02-15T07:48:27;100722.72;;;13.78;80.78
77240;BME280;66258;53.170;-2.240;2023-02-15T07:50:54;100733.09;;;13.83;80.22
77240;BME280;66258;53.170;-2.240;2023-02-15T07:53:25;100718.78;;;13.89;79.52
77240;BME280;66258;53.170;-2.240;2023-02-15T07:55:51;100719.25;;;13.92;79.21
77240;BME280;66258;53.170;-2.240;2023-02-15T07:58:18;100713.41;;;14.03;78.99
77240;BME280;66258;53.170;-2.240;2023-02-15T08:00:45;100709.13;;;14.09;78.55
77240;BME280;66258;53.170;-2.240;2023-02-15T08:03:12;100701.97;;;14.08;78.46
77240;BME280;66258;53.170;-2.240;2023-02-15T08:05:42;100700.00;;;14.25;78.20
77240;BME280;66258;53.170;-2.240;2023-02-15T08:08:10;100695.56;;;14.24;77.90
77240;BME280;66258;53.170;-2.240;2023-02-15T08:10:37;100698.16;;;14.40;77.75
77240;BME280;66258;53.170;-2.240;2023-02-15T08:13:04;100696.31;;;14.40;77.16
77240;BME280;66258;53.170;-2.240;2023-02-15T08:15:31;100710.72;;;14.49;76.47
77240;BME280;66258;53.170;-2.240;2023-02-15T08:18:01;100709.69;;;14.73;75.27
77240;BME280;66258;53.170;-2.240;2023-02-15T08:20:28;100710.91;;;14.85;74.48
77240;BME280;66258;53.170;-2.240;2023-02-15T08:22:56;100696.81;;;14.82;73.44
77240;BME280;66258;53.170;-2.240;2023-02-15T08:25:23;100692.97;;;14.91;73.15
77240;BME280;66258;53.170;-2.240;2023-02-15T08:27:50;100699.28;;;15.06;72.66
77240;BME280;66258;53.170;-2.240;2023-02-15T08:30:17;100711.63;;;15.17;72.35
77240;BME280;66258;53.170;-2.240;2023-02-15T08:32:44;100714.66;;;15.36;71.96
77240;BME280;66258;53.170;-2.240;2023-02-15T08:35:11;100717.00;;;15.54;71.04
77240;BME280;66258;53.170;-2.240;2023-02-15T08:37:38;100709.00;;;15.67;70.36
77240;BME280;66258;53.170;-2.240;2023-02-15T08:40:08;100725.81;;;15.86;68.55
77240;BME280;66258;53.170;-2.240;2023-02-15T08:42:35;100718.94;;;15.90;67.37
77240;BME280;66258;53.170;-2.240;2023-02-15T08:45:02;100718.97;;;16.11;66.80
77240;BME280;66258;53.170;-2.240;2023-02-15T08:47:29;100721.78;;;16.18;67.00
77240;BME280;66258;53.170;-2.240;2023-02-15T08:49:56;100727.69;;;16.21;66.79
77240;BME280;66258;53.170;-2.240;2023-02-15T08:52:23;100731.91;;;16.38;66.03
77240;BME280;66258;53.170;-2.240;2023-02-15T08:54:50;100738.44;;;16.44;65.96
77240;BME280;66258;53.170;-2.240;2023-02-15T08:57:18;100749.00;;;16.47;65.92
77240;BME280;66258;53.170;-2.240;2023-02-15T08:59:46;100741.59;;;16.41;65.89
77240;BME280;66258;53.170;-2.240;2023-02-15T09:02:13;100727.97;;;16.47;66.08
77240;BME280;66258;53.170;-2.240;2023-02-15T09:04:40;100733.22;;;16.64;66.05
77240;BME280;66258;53.170;-2.240;2023-02-15T09:07:07;100740.28;;;16.58;65.79
77240;BME280;66258;53.170;-2.240;2023-02-15T09:09:34;100734.97;;;16.71;65.60
77240;BME280;66258;53.170;-2.240;2023-02-15T09:12:00;100738.91;;;16.90;65.08
77240;BME280;66258;53.170;-2.240;2023-02-15T09:14:29;100729.81;;;17.11;64.05
77240;BME280;66258;53.170;-2.240;2023-02-15T09:16:56;100736.78;;;17.41;62.36
77240;BME280;66258;53.170;-2.240;2023-02-15T09:19:23;100732.59;;;17.45;61.04
77240;BME280;66258;53.170;-2.240;2023-02-15T09:21:50;100722.88;;;17.77;60.13
77240;BME280;66258;53.170;-2.240;2023-02-15T09:24:17;100734.59;;;18.06;58.77
77240;BME280;66258;53.170;-2.240;2023-02-15T09:26:46;100726.84;;;18.23;57.62
77240;BME280;66258;53.170;-2.240;2023-02-15T09:29:14;100725.81;;;18.37;56.87
77240;BME280;66258;53.170;-2.240;2023-02-15T09:31:44;100719.50;;;18.36;56.56
77240;BME280;66258;53.170;-2.240;2023-02-15T09:34:13;100710.19;;;18.31;56.85
77240;BME280;66258;53.170;-2.240;2023-02-15T09:36:41;100707.50;;;18.44;57.00
77240;BME280;66258;53.170;-2.240;2023-02-15T09:39:09;100703.91;;;18.57;57.13
77240;BME280;66258;53.170;-2.240;2023-02-15T09:44:40;100704.59;;;18.85;54.31
77240;BME280;66258;53.170;-2.240;2023-02-15T09:47:27;100704.38;;;19.00;53.99
77240;BME280;66258;53.170;-2.240;2023-02-15T09:50:06;100709.66;;;18.95;53.39
77240;BME280;66258;53.170;-2.240;2023-02-15T09:52:48;100715.56;;;18.92;52.41
77240;BME280;66258;53.170;-2.240;2023-02-15T09:55:42;100706.72;;;18.90;52.85
77240;BME280;66258;53.170;-2.240;2023-02-15T09:58:19;100708.59;;;18.96;52.84
77240;BME280;66258;53.170;-2.240;2023-02-15T10:00:56;100698.28;;;18.84;52.59
77240;BME280;66258;53.170;-2.240;2023-02-15T10:03:42;100702.06;;;18.97;52.89
77240;BME280;66258;53.170;-2.240;2023-02-15T10:06:27;100695.72;;;19.03;52.51
77240;BME280;66258;53.170;-2.240;2023-02-15T10:09:22;100691.91;;;19.17;52.24
77240;BME280;66258;53.170;-2.240;2023-02-15T10:12:10;100697.53;;;19.42;51.15
77240;BME280;66258;53.170;-2.240;2023-02-15T10:17:46;100714.22;;;19.40;51.38
77240;BME280;66258;53.170;-2.240;2023-02-15T10:20:26;100720.03;;;19.83;50.48
77240;BME280;66258;53.170;-2.240;2023-02-15T10:23:06;100715.94;;;20.06;49.34
77240;BME280;66258;53.170;-2.240;2023-02-15T10:25:42;100708.56;;;20.00;48.98
77240;BME280;66258;53.170;-2.240;2023-02-15T10:28:16;100710.44;;;20.06;50.05
77240;BME280;66258;53.170;-2.240;2023-02-15T10:30:47;100713.69;;;20.28;49.13
77240;BME280;66258;53.170;-2.240;2023-02-15T10:33:27;100706.31;;;20.21;49.34
77240;BME280;66258;53.170;-2.240;2023-02-15T10:36:11;100695.94;;;19.85;49.85
77240;BME280;66258;53.170;-2.240;2023-02-15T10:38:42;100698.47;;;19.94;50.17
77240;BME280;66258;53.170;-2.240;2023-02-15T10:41:25;100690.13;;;19.55;50.99
77240;BME280;66258;53.170;-2.240;2023-02-15T10:44:11;100693.81;;;19.87;51.28
77240;BME280;66258;53.170;-2.240;2023-02-15T10:46:59;100696.25;;;19.64;51.01
77240;BME280;66258;53.170;-2.240;2023-02-15T10:49:47;100686.56;;;19.42;51.48
77240;BME280;66258;53.170;-2.240;2023-02-15T10:52:28;100688.13;;;19.11;52.13
77240;BME280;66258;53.170;-2.240;2023-02-15T10:55:08;100682.22;;;18.95;53.29
77240;BME280;66258;53.170;-2.240;2023-02-15T10:57:46;100684.97;;;18.88;53.91
77240;BME280;66258;53.170;-2.240;2023-02-15T11:00:25;100683.69;;;18.97;54.73
77240;BME280;66258;53.170;-2.240;2023-02-15T11:03:11;100686.81;;;19.14;54.84
77240;BME280;66258;53.170;-2.240;2023-02-15T11:05:45;100676.66;;;19.34;54.75
77240;BME280;66258;53.170;-2.240;2023-02-15T11:08:19;100673.66;;;19.62;55.14
77240;BME280;66258;53.170;-2.240;2023-02-15T11:10:52;100670.81;;;19.82;53.90
77240;BME280;66258;53.170;-2.240;2023-02-15T11:13:25;100667.91;;;19.70;53.39
77240;BME280;66258;53.170;-2.240;2023-02-15T11:15:55;100657.78;;;19.64;53.74
77240;BME280;66258;53.170;-2.240;2023-02-15T11:18:28;100658.22;;;19.68;54.12
77240;BME280;66258;53.170;-2.240;2023-02-15T11:21:01;100658.25;;;19.54;55.00
77240;BME280;66258;53.170;-2.240;2023-02-15T11:23:32;100664.16;;;19.58;56.39
77240;BME280;66258;53.170;-2.240;2023-02-15T11:26:04;100655.72;;;19.46;56.17
77240;BME280;66258;53.170;-2.240;2023-02-15T11:28:34;100659.31;;;19.47;56.54
77240;BME280;66258;53.170;-2.240;2023-02-15T11:31:13;100665.41;;;19.62;56.80
77240;BME280;66258;53.170;-2.240;2023-02-15T11:33:45;100662.00;;;19.73;56.73
77240;BME280;66258;53.170;-2.240;2023-02-15T11:36:15;100664.53;;;19.68;57.05
77240;BME280;66258;53.170;-2.240;2023-02-15T11:38:46;100673.19;;;19.72;57.42
77240;BME280;66258;53.170;-2.240;2023-02-15T11:41:18;100669.72;;;19.89;56.64
77240;BME280;66258;53.170;-2.240;2023-02-15T11:43:51;100682.31;;;20.04;56.01
77240;BME280;66258;53.170;-2.240;2023-02-15T11:46:20;100685.25;;;19.64;56.41
77240;BME280;66258;53.170;-2.240;2023-02-15T11:48:47;100687.00;;;19.52;56.85
77240;BME280;66258;53.170;-2.240;2023-02-15T11:51:17;100686.16;;;19.38;57.81
77240;BME280;66258;53.170;-2.240;2023-02-15T11:53:50;100699.53;;;19.08;58.81
77240;BME280;66258;53.170;-2.240;2023-02-15T11:56:20;100686.63;;;19.15;59.32
77240;BME280;66258;53.170;-2.240;2023-02-15T11:58:52;100690.88;;;19.05;59.54
77240;BME280;66258;53.170;-2.240;2023-02-15T12:01:25;100678.44;;;18.89;60.75
77240;BME280;66258;53.170;-2.240;2023-02-15T12:03:58;100682.03;;;18.70;62.75
77240;BME280;66258;53.170;-2.240;2023-02-15T12:06:28;100682.44;;;18.80;63.10
77240;BME280;66258;53.170;-2.240;2023-02-15T12:09:02;100688.56;;;18.82;63.36
77240;BME280;66258;53.170;-2.240;2023-02-15T12:11:35;100695.50;;;18.71;63.36
77240;BME280;66258;53.170;-2.240;2023-02-15T12:14:04;100684.50;;;18.58;63.89
77240;BME280;66258;53.170;-2.240;2023-02-15T12:16:39;100692.94;;;18.57;64.27
77240;BME280;66258;53.170;-2.240;2023-02-15T12:19:18;100695.69;;;18.43;64.92
77240;BME280;66258;53.170;-2.240;2023-02-15T12:21:51;100691.66;;;18.39;65.92
77240;BME280;66258;53.170;-2.240;2023-02-15T12:24:22;100696.09;;;18.27;66.67
77240;BME280;66258;53.170;-2.240;2023-02-15T12:26:57;100696.31;;;18.45;67.11
77240;BME280;66258;53.170;-2.240;2023-02-15T12:29:29;100698.22;;;18.45;67.71
77240;BME280;66258;53.170;-2.240;2023-02-15T12:31:58;100700.78;;;18.60;67.66
77240;BME280;66258;53.170;-2.240;2023-02-15T12:34:29;100694.63;;;18.58;68.21
77240;BME280;66258;53.170;-2.240;2023-02-15T12:37:00;100706.91;;;18.62;68.14
77240;BME280;66258;53.170;-2.240;2023-02-15T12:39:31;100700.53;;;18.54;68.50
77240;BME280;66258;53.170;-2.240;2023-02-15T12:42:04;100706.28;;;18.79;68.18
77240;BME280;66258;53.170;-2.240;2023-02-15T12:44:33;100698.25;;;18.71;68.02
77240;BME280;66258;53.170;-2.240;2023-02-15T12:47:02;100701.38;;;18.55;69.15
77240;BME280;66258;53.170;-2.240;2023-02-15T12:49:31;100691.53;;;18.87;68.68
77240;BME280;66258;53.170;-2.240;2023-02-15T12:52:00;100688.38;;;18.90;69.16
77240;BME280;66258;53.170;-2.240;2023-02-15T12:54:32;100691.28;;;18.95;68.71
77240;BME280;66258;53.170;-2.240;2023-02-15T12:57:02;100691.94;;;19.10;68.78
77240;BME280;66258;53.170;-2.240;2023-02-15T12:59:48;100698.00;;;19.26;68.33
77240;BME280;66258;53.170;-2.240;2023-02-15T13:02:21;100694.00;;;19.15;68.33
77240;BME280;66258;53.170;-2.240;2023-02-15T13:04:49;100690.47;;;18.81;70.13